createdAt,value
2019-04-20T00:02:13.844Z,10.60
2019-04-20T00:04:39.095Z,10.61
2019-04-20T00:07:10.210Z,10.60
2019-04-20T00:09:45.425Z,10.53
2019-04-20T00:12:19.137Z,10.42
2019-04-20T00:14:44.301Z,10.40
2019-04-20T00:17:14.250Z,10.30
2019-04-20T00:19:50.164Z,10.21
2019-04-20T00:22:24.651Z,10.15
2019-04-20T00:25:12.619Z,10.05
2019-04-20T00:27:59.764Z,10.02
2019-04-20T00:30:31.435Z,10.03
2019-04-20T00:32:55.756Z,10.02
2019-04-20T00:35:18.844Z,9.92
2019-04-20T00:37:48.936Z,9.89
2019-04-20T00:40:19.442Z,9.81
2019-04-20T00:42:53.851Z,9.72
2019-04-20T00:45:25.773Z,9.56
2019-04-20T00:47:59.264Z,9.40
2019-04-20T00:50:41.788Z,9.25
2019-04-20T00:53:06.797Z,9.13
2019-04-20T00:55:29.264Z,9.11
2019-04-20T00:58:09.394Z,9.00
2019-04-20T01:01:00.148Z,8.92
2019-04-20T01:03:29.201Z,8.88
2019-04-20T01:06:06.319Z,8.84
2019-04-20T01:08:21.243Z,8.89
2019-04-20T01:10:56.596Z,8.94
2019-04-20T01:13:28.159Z,8.93
2019-04-20T01:16:07.620Z,8.93
2019-04-20T01:18:32.894Z,8.94
2019-04-20T01:21:12.691Z,8.84
2019-04-20T01:23:47.633Z,8.87
2019-04-20T01:26:14.490Z,8.80
2019-04-20T01:28:54.109Z,8.64
2019-04-20T01:31:25.471Z,8.63
2019-04-20T01:33:56.559Z,8.65
2019-04-20T01:36:37.073Z,8.63
2019-04-20T01:39:05.489Z,8.57
2019-04-20T01:41:20.335Z,8.58
2019-04-20T01:43:50.353Z,8.54
2019-04-20T01:46:23.434Z,8.50
2019-04-20T01:48:52.644Z,8.54
2019-04-20T01:51:27.284Z,8.52
2019-04-20T01:54:13.515Z,8.52
2019-04-20T01:56:40.484Z,8.52
2019-04-20T01:59:22.986Z,8.52
2019-04-20T02:01:45.956Z,8.49
2019-04-20T02:04:27.159Z,8.45
2019-04-20T02:06:56.404Z,8.40
2019-04-20T02:09:27.342Z,8.32
2019-04-20T02:11:55.729Z,8.32
2019-04-20T02:14:34.236Z,8.32
2019-04-20T02:17:08.375Z,8.23
2019-04-20T02:19:43.247Z,8.23
2019-04-20T02:22:14.927Z,8.13
2019-04-20T02:24:34.028Z,8.15
2019-04-20T02:27:04.386Z,8.12
2019-04-20T02:29:58.287Z,8.11
2019-04-20T02:35:18.657Z,8.00
2019-04-20T02:38:05.654Z,7.92
2019-04-20T02:40:45.089Z,7.90
2019-04-20T02:48:02.800Z,7.99
2019-04-20T02:53:15.653Z,7.89
2019-04-20T03:00:36.766Z,7.83
2019-04-20T03:02:53.673Z,7.74
2019-04-20T03:05:26.251Z,7.74
2019-04-20T03:08:02.779Z,7.69
2019-04-20T03:10:44.508Z,7.67
2019-04-20T03:13:08.751Z,7.54
2019-04-20T03:15:46.311Z,7.43
2019-04-20T03:18:15.717Z,7.39
2019-04-20T03:20:46.308Z,7.45
2019-04-20T03:23:35.651Z,7.38
2019-04-20T03:25:53.437Z,7.43
2019-04-20T03:28:28.776Z,7.40
2019-04-20T03:36:18.342Z,7.31
2019-04-20T03:38:41.438Z,7.26
2019-04-20T03:41:04.855Z,7.17
2019-04-20T03:43:24.969Z,7.17
2019-04-20T03:46:01.447Z,7.17
2019-04-20T03:48:41.314Z,7.21
2019-04-20T03:51:26.899Z,7.16
2019-04-20T03:54:05.913Z,7.19
2019-04-20T03:56:46.344Z,7.22
2019-04-20T03:59:33.804Z,7.16
2019-04-20T04:02:49.401Z,7.11
2019-04-20T04:05:07.312Z,6.97
2019-04-20T04:07:24.856Z,6.99
2019-04-20T04:10:06.709Z,7.10
2019-04-20T04:12:56.790Z,7.13
2019-04-20T04:15:27.548Z,7.15
2019-04-20T04:18:04.391Z,7.20
2019-04-20T04:20:40.751Z,7.28
2019-04-20T04:23:19.255Z,7.30
2019-04-20T04:25:53.131Z,7.35
2019-04-20T04:28:19.510Z,7.36
2019-04-20T04:30:59.775Z,7.45
2019-04-20T04:35:59.287Z,7.75
2019-04-20T04:38:37.557Z,7.65
2019-04-20T04:43:37.268Z,7.61
2019-04-20T04:45:48.913Z,7.73
2019-04-20T04:48:27.417Z,7.86
2019-04-20T04:50:58.968Z,8.03
2019-04-20T04:53:40.744Z,8.11
2019-04-20T04:56:00.427Z,8.24
2019-04-20T04:58:27.685Z,8.41
2019-04-20T05:01:05.544Z,8.62
2019-04-20T05:03:46.380Z,8.41
2019-04-20T05:06:21.997Z,8.38
2019-04-20T05:08:41.968Z,8.38
2019-04-20T05:11:08.889Z,8.39
2019-04-20T05:13:45.901Z,8.42
2019-04-20T05:16:33.779Z,8.43
2019-04-20T05:19:05.118Z,8.69
2019-04-20T05:21:39.434Z,8.91
2019-04-20T05:24:09.982Z,8.84
2019-04-20T05:26:50.998Z,8.71
2019-04-20T05:29:06.637Z,8.52
2019-04-20T05:31:33.986Z,8.42
2019-04-20T05:34:29.107Z,8.63
2019-04-20T05:36:49.284Z,8.64
2019-04-20T05:41:51.489Z,8.72
2019-04-20T05:44:27.681Z,8.63
2019-04-20T05:47:05.568Z,8.74
2019-04-20T05:49:34.987Z,8.96
2019-04-20T05:52:18.558Z,9.12
2019-04-20T05:54:51.353Z,9.12
2019-04-20T05:57:23.653Z,9.28
2019-04-20T05:59:51.446Z,9.42
2019-04-20T06:02:16.978Z,9.54
2019-04-20T06:05:00.379Z,9.44
2019-04-20T06:07:24.018Z,9.48
2019-04-20T06:09:54.510Z,9.73
2019-04-20T06:12:19.770Z,9.78
2019-04-20T06:14:52.043Z,9.98
2019-04-20T06:17:37.888Z,9.90
2019-04-20T06:20:15.517Z,9.94
2019-04-20T06:22:41.453Z,9.95
2019-04-20T06:27:45.690Z,10.50
2019-04-20T06:30:13.550Z,10.69
2019-04-20T06:33:38.706Z,10.77
2019-04-20T06:36:13.411Z,10.86
2019-04-20T06:38:49.410Z,11.10
2019-04-20T06:43:40.553Z,11.05
2019-04-20T06:46:09.806Z,11.37
2019-04-20T06:48:44.500Z,11.36
2019-04-20T06:51:18.730Z,11.66
2019-04-20T06:53:46.935Z,11.78
2019-04-20T06:56:29.403Z,12.06
2019-04-20T06:59:03.737Z,12.13
2019-04-20T07:01:38.682Z,12.26
2019-04-20T07:04:31.750Z,12.33
2019-04-20T07:09:19.962Z,12.92
2019-04-20T07:11:35.075Z,12.98
2019-04-20T07:13:57.842Z,13.10
2019-04-20T07:16:46.512Z,13.34
2019-04-20T07:19:30.043Z,13.44
2019-04-20T07:22:23.406Z,13.42
2019-04-20T07:24:45.840Z,13.70
2019-04-20T07:27:12.208Z,13.77
2019-04-20T07:29:46.055Z,13.99
2019-04-20T07:32:06.327Z,14.04
2019-04-20T07:34:47.475Z,13.97
2019-04-20T07:37:46.692Z,13.96
2019-04-20T07:40:04.297Z,13.99
2019-04-20T07:42:35.065Z,14.17
2019-04-20T07:45:10.027Z,14.24
2019-04-20T07:47:42.911Z,14.31
2019-04-20T07:50:01.131Z,14.35
2019-04-20T07:52:20.017Z,14.32
2019-04-20T07:55:26.379Z,14.41
2019-04-20T07:57:37.458Z,14.62
2019-04-20T08:00:13.518Z,14.66
2019-04-20T08:02:52.002Z,14.73
2019-04-20T08:05:15.398Z,14.79
2019-04-20T08:07:45.723Z,14.91
2019-04-20T08:10:12.217Z,14.90
2019-04-20T08:13:04.907Z,14.86
2019-04-20T08:18:04.546Z,14.88
2019-04-20T08:20:31.128Z,15.10
2019-04-20T08:23:06.221Z,15.32
2019-04-20T08:25:32.807Z,15.37
2019-04-20T08:27:57.374Z,15.32
2019-04-20T08:31:06.598Z,15.55
2019-04-20T08:33:44.335Z,15.51
2019-04-20T08:36:16.855Z,15.59
2019-04-20T08:41:14.259Z,15.51
2019-04-20T08:46:20.509Z,15.65
2019-04-20T08:48:50.971Z,15.84
2019-04-20T08:51:19.453Z,15.88
2019-04-20T08:53:53.028Z,16.04
2019-04-20T08:56:18.549Z,16.22
2019-04-20T08:58:38.923Z,16.15
2019-04-20T09:01:14.157Z,16.23
2019-04-20T09:03:51.229Z,16.48
2019-04-20T09:06:30.968Z,16.50
2019-04-20T09:08:57.825Z,16.55
2019-04-20T09:11:30.989Z,16.60
2019-04-20T09:13:54.838Z,16.65
2019-04-20T09:16:26.943Z,16.73
2019-04-20T09:18:58.974Z,16.81
2019-04-20T09:21:34.555Z,17.03
2019-04-20T09:24:21.727Z,17.10
2019-04-20T09:26:42.612Z,17.31
2019-04-20T09:29:12.566Z,17.24
2019-04-20T09:31:43.387Z,17.46
2019-04-20T09:36:56.482Z,17.69
2019-04-20T09:39:44.936Z,17.78
2019-04-20T09:42:15.361Z,17.82
2019-04-20T09:44:50.907Z,17.87
2019-04-20T09:47:34.397Z,18.15
2019-04-20T09:50:26.342Z,18.15
2019-04-20T09:52:59.223Z,18.25
2019-04-20T09:55:24.415Z,18.12
2019-04-20T09:58:01.250Z,18.13
2019-04-20T10:00:35.690Z,18.19
2019-04-20T10:02:48.451Z,18.37
2019-04-20T10:05:19.807Z,18.27
2019-04-20T10:07:56.540Z,17.95
2019-04-20T10:10:31.298Z,17.94
2019-04-20T10:12:54.174Z,17.75
2019-04-20T10:15:27.594Z,18.01
2019-04-20T10:17:56.159Z,18.14
2019-04-20T10:20:31.224Z,17.78
2019-04-20T10:22:58.441Z,17.74
2019-04-20T10:25:28.752Z,17.74
2019-04-20T10:27:58.799Z,17.80
2019-04-20T10:30:28.830Z,17.90
2019-04-20T10:32:59.541Z,17.79
2019-04-20T10:35:29.805Z,18.11
2019-04-20T10:38:07.581Z,18.10
2019-04-20T10:40:46.133Z,18.18
2019-04-20T10:43:10.224Z,18.20
2019-04-20T10:45:41.247Z,18.36
2019-04-20T10:48:11.452Z,18.25
2019-04-20T10:50:41.376Z,18.32
2019-04-20T10:53:12.126Z,18.40
2019-04-20T10:55:43.161Z,18.56
2019-04-20T10:58:13.673Z,18.63
2019-04-20T11:00:46.207Z,18.79
2019-04-20T11:03:17.741Z,18.79
2019-04-20T11:05:48.909Z,18.74
2019-04-20T11:08:20.368Z,18.71
2019-04-20T11:11:01.532Z,18.74
2019-04-20T11:13:23.546Z,18.70
2019-04-20T11:15:54.684Z,18.80
2019-04-20T11:18:25.150Z,19.03
2019-04-20T11:20:55.388Z,19.16
2019-04-20T11:23:26.625Z,19.35
2019-04-20T11:25:57.969Z,19.18
2019-04-20T11:28:28.256Z,19.26
2019-04-20T11:30:58.549Z,18.96
2019-04-20T11:33:29.923Z,19.22
2019-04-20T11:36:01.098Z,19.16
2019-04-20T11:38:31.441Z,19.30
2019-04-20T11:41:10.669Z,19.20
2019-04-20T11:43:33.638Z,19.24
2019-04-20T11:46:04.785Z,19.29
2019-04-20T11:48:34.975Z,19.31
2019-04-20T11:51:05.518Z,19.62
2019-04-20T11:53:36.397Z,19.76
2019-04-20T11:56:13.553Z,19.83
2019-04-20T11:58:38.844Z,20.18
2019-04-20T12:01:17.593Z,19.90
2019-04-20T12:03:56.412Z,19.74
2019-04-20T12:06:16.881Z,19.55
2019-04-20T12:08:47.257Z,19.37
2019-04-20T12:11:26.550Z,19.23
2019-04-20T12:13:49.027Z,19.32
2019-04-20T12:16:19.399Z,19.31
2019-04-20T12:18:50.411Z,19.18
2019-04-20T12:21:21.057Z,19.36
2019-04-20T12:23:51.922Z,19.43
2019-04-20T12:26:22.684Z,19.49
2019-04-20T12:28:53.778Z,19.38
2019-04-20T12:31:27.426Z,19.45
2019-04-20T12:33:55.659Z,19.43
2019-04-20T12:36:26.079Z,19.41
2019-04-20T12:38:57.156Z,19.38
2019-04-20T12:41:37.451Z,19.44
2019-04-20T12:43:59.525Z,19.36
2019-04-20T12:46:31.952Z,19.40
2019-04-20T13:09:22.952Z,19.83
2019-04-20T13:12:04.582Z,19.75
2019-04-20T13:14:46.666Z,19.66
2019-04-20T13:17:16.747Z,19.64
2019-04-20T13:19:47.192Z,19.77
2019-04-20T13:22:17.361Z,19.72
2019-04-20T13:24:47.453Z,19.82
2019-04-20T13:27:18.679Z,19.73
2019-04-20T13:29:52.253Z,19.79
2019-04-20T13:32:21.633Z,19.94
2019-04-20T13:34:52.205Z,19.89
2019-04-20T13:37:22.409Z,19.97
2019-04-20T13:39:53.120Z,20.03
2019-04-20T13:42:27.865Z,20.10
2019-04-20T13:44:57.108Z,19.96
2019-04-20T13:47:30.470Z,19.88
2019-04-20T13:50:01.067Z,20.11
2019-04-20T13:52:32.807Z,20.20
2019-04-20T13:55:03.805Z,20.35
2019-04-20T13:57:35.741Z,20.36
2019-04-20T14:00:13.831Z,20.28
2019-04-20T14:02:46.739Z,20.24
2019-04-20T14:05:18.772Z,20.21
2019-04-20T14:07:49.363Z,20.16
2019-04-20T14:10:19.797Z,19.96
2019-04-20T14:13:00.776Z,19.86
2019-04-20T14:15:22.844Z,19.83
2019-04-20T14:17:53.578Z,20.02
2019-04-20T14:20:24.404Z,19.99
2019-04-20T14:22:56.798Z,19.80
2019-04-20T14:25:27.160Z,19.54
2019-04-20T14:27:57.821Z,19.55
2019-04-20T14:30:29.003Z,19.48
2019-04-20T14:33:10.648Z,19.40
2019-04-20T14:35:42.960Z,19.38
2019-04-20T14:38:17.698Z,19.31
2019-04-20T14:40:54.554Z,19.36
2019-04-20T14:50:00.818Z,19.26
2019-04-20T14:52:31.316Z,19.21
2019-04-20T14:55:01.909Z,19.37
2019-04-20T14:57:32.021Z,19.53
2019-04-20T15:00:09.745Z,19.70
2019-04-20T15:02:40.382Z,19.78
2019-04-20T15:05:10.902Z,19.78
2019-04-20T15:07:41.019Z,19.92
2019-04-20T15:10:11.282Z,19.91
2019-04-20T15:12:49.910Z,19.87
2019-04-20T15:15:14.659Z,19.92
2019-04-20T15:17:47.850Z,19.86
2019-04-20T15:20:23.421Z,19.93
2019-04-20T15:22:54.652Z,20.08
2019-04-20T15:25:27.395Z,20.17
2019-04-20T15:27:58.325Z,20.05
2019-04-20T15:30:28.368Z,19.93
2019-04-20T15:32:59.127Z,19.88
2019-04-20T15:35:30.213Z,19.87
2019-04-20T15:38:00.391Z,19.71
2019-04-20T15:40:31.023Z,19.73
2019-04-20T15:43:10.246Z,19.80
2019-04-20T15:45:34.959Z,19.63
2019-04-20T15:48:44.003Z,19.46
2019-04-20T15:50:51.915Z,19.46
2019-04-20T15:53:22.098Z,19.44
2019-04-20T15:55:52.417Z,19.42
2019-04-20T15:58:22.849Z,19.40
2019-04-20T16:00:54.581Z,19.24
2019-04-20T16:03:31.052Z,19.17
2019-04-20T16:06:05.601Z,19.15
2019-04-20T16:08:38.784Z,19.10
2019-04-20T16:11:09.344Z,19.02
2019-04-20T16:13:44.127Z,19.01
2019-04-20T16:16:12.147Z,18.98
2019-04-20T16:18:43.248Z,18.99
2019-04-20T16:21:20.182Z,18.97
2019-04-20T16:23:48.410Z,18.95
2019-04-20T16:26:26.290Z,18.95
2019-04-20T16:28:57.629Z,18.99
2019-04-20T16:31:28.832Z,18.92
2019-04-20T16:33:59.202Z,18.98
2019-04-20T16:36:30.466Z,18.92
2019-04-20T16:45:50.988Z,18.74
2019-04-20T16:48:28.282Z,18.74
2019-04-20T16:51:00.649Z,18.68
2019-04-20T16:54:50.086Z,18.61
2019-04-20T17:03:19.617Z,18.50
2019-04-20T17:06:08.401Z,18.40
2019-04-20T17:08:44.469Z,18.40
2019-04-20T17:24:15.328Z,18.23
2019-04-20T17:26:48.106Z,18.15
2019-04-20T17:29:23.947Z,18.10
2019-04-20T17:32:15.697Z,18.06
2019-04-20T17:35:01.940Z,18.00
2019-04-20T17:37:24.783Z,17.98
2019-04-20T17:40:11.122Z,17.86
2019-04-20T17:42:46.237Z,17.82
2019-04-20T17:45:10.357Z,17.76
2019-04-20T17:47:52.850Z,17.71
2019-04-20T17:50:27.339Z,17.62
2019-04-20T17:52:57.847Z,17.52
2019-04-20T17:55:33.860Z,17.42
2019-04-20T17:57:57.397Z,17.22
2019-04-20T18:00:38.441Z,17.02
2019-04-20T18:03:25.878Z,16.90
2019-04-20T18:05:56.987Z,16.77
2019-04-20T18:08:29.986Z,16.62
2019-04-20T18:10:53.156Z,16.51
2019-04-20T18:13:19.930Z,16.34
2019-04-20T18:15:59.005Z,16.26
2019-04-20T18:18:33.622Z,16.15
2019-04-20T18:21:01.047Z,16.04
2019-04-20T18:23:36.287Z,15.92
2019-04-20T18:26:22.646Z,15.89
2019-04-20T18:29:00.360Z,15.79
2019-04-20T18:31:26.514Z,15.74
2019-04-20T18:34:02.241Z,15.62
2019-04-20T18:36:35.935Z,15.55
2019-04-20T18:39:04.989Z,15.45
2019-04-20T18:41:41.886Z,15.37
2019-04-20T18:44:06.522Z,15.21
2019-04-20T18:47:00.698Z,15.08
2019-04-20T18:49:23.668Z,15.05
2019-04-20T18:51:41.712Z,14.98
2019-04-20T18:54:19.257Z,14.88
2019-04-20T18:56:47.540Z,14.85
2019-04-20T18:59:15.280Z,14.77
2019-04-20T19:01:46.760Z,14.69
2019-04-20T19:04:17.660Z,14.63
2019-04-20T19:06:48.037Z,14.56
2019-04-20T19:09:24.590Z,14.51
2019-04-20T19:11:57.215Z,14.44
2019-04-20T19:14:37.171Z,14.34
2019-04-20T19:17:34.474Z,14.24
2019-04-20T19:19:58.231Z,14.10
2019-04-20T19:22:27.824Z,13.99
2019-04-20T19:24:58.084Z,13.84
2019-04-20T19:27:36.065Z,13.80
2019-04-20T19:30:17.828Z,13.75
2019-04-20T19:32:45.291Z,13.71
2019-04-20T19:35:14.546Z,13.62
2019-04-20T19:37:49.285Z,13.57
2019-04-20T19:40:18.287Z,13.52
2019-04-20T19:42:54.556Z,13.24
2019-04-20T19:45:36.197Z,12.98
2019-04-20T19:48:00.123Z,13.15
2019-04-20T19:50:41.336Z,13.27
2019-04-20T19:53:12.741Z,13.29
2019-04-20T19:55:31.090Z,13.33
2019-04-20T19:58:02.991Z,13.37
2019-04-20T20:00:24.979Z,13.41
2019-04-20T20:02:55.259Z,13.37
2019-04-20T20:05:33.801Z,13.36
2019-04-20T20:08:06.456Z,13.35
2019-04-20T20:10:33.938Z,13.35
2019-04-20T20:13:02.641Z,13.38
2019-04-20T20:15:36.397Z,13.33
2019-04-20T20:18:27.537Z,13.31
2019-04-20T20:20:55.724Z,13.30
2019-04-20T20:23:10.040Z,13.26
2019-04-20T20:25:44.646Z,13.29
2019-04-20T20:28:19.011Z,13.30
2019-04-20T20:30:56.937Z,13.27
2019-04-20T20:33:35.838Z,13.11
2019-04-20T20:35:58.645Z,12.98
2019-04-20T20:38:28.000Z,12.87
2019-04-20T20:40:58.924Z,12.76
2019-04-20T20:43:38.239Z,12.69
2019-04-20T20:46:07.908Z,12.68
2019-04-20T20:48:38.795Z,12.70
2019-04-20T20:51:14.171Z,12.73
2019-04-20T20:53:42.847Z,12.77
2019-04-20T20:56:10.772Z,12.77
2019-04-20T20:58:45.620Z,12.70
2019-04-20T21:01:14.430Z,12.71
2019-04-20T21:03:42.100Z,12.71
2019-04-20T21:06:09.573Z,12.64
2019-04-20T21:08:45.402Z,12.63
2019-04-20T21:11:19.589Z,12.55
2019-04-20T21:13:47.281Z,12.53
2019-04-20T21:16:20.342Z,12.49
2019-04-20T21:19:01.996Z,12.43
2019-04-20T21:21:36.078Z,12.43
2019-04-20T21:23:59.912Z,12.39
2019-04-20T21:26:30.437Z,12.38
2019-04-20T21:28:55.509Z,12.33
2019-04-20T21:31:28.956Z,12.27
2019-04-20T21:34:01.721Z,12.19
2019-04-20T21:36:31.446Z,12.17
2019-04-20T21:39:01.649Z,12.05
2019-04-20T21:41:31.689Z,11.96
2019-04-20T21:44:05.530Z,11.99
2019-04-20T21:46:40.870Z,11.95
2019-04-20T21:49:18.192Z,11.95
2019-04-20T21:51:44.159Z,11.94
2019-04-20T21:54:09.591Z,11.88
2019-04-20T21:56:46.113Z,11.83
2019-04-20T21:59:20.624Z,11.73
2019-04-20T22:01:55.081Z,11.71
2019-04-20T22:04:14.831Z,11.68
2019-04-20T22:06:46.460Z,11.60
2019-04-20T22:09:18.208Z,11.47
2019-04-20T22:11:49.505Z,11.43
2019-04-20T22:14:24.262Z,11.41
2019-04-20T22:16:54.804Z,11.31
2019-04-20T22:19:34.515Z,11.22
2019-04-20T22:22:05.515Z,11.20
2019-04-20T22:24:42.169Z,11.16
2019-04-20T22:27:08.387Z,11.11
2019-04-20T22:29:30.357Z,11.05
2019-04-20T22:32:07.445Z,11.05
2019-04-20T22:34:33.711Z,10.94
2019-04-20T22:37:04.442Z,10.93
2019-04-20T22:39:44.633Z,10.92
2019-04-20T22:42:12.406Z,10.83
2019-04-20T22:44:41.132Z,10.79
2019-04-20T22:47:17.131Z,10.74
2019-04-20T22:50:05.584Z,10.66
2019-04-20T22:52:30.541Z,10.58
2019-04-20T22:55:01.287Z,10.52
2019-04-20T22:57:33.425Z,10.44
2019-04-20T22:59:59.626Z,10.38
2019-04-20T23:02:23.623Z,10.31
2019-04-20T23:04:54.915Z,10.22
2019-04-20T23:07:26.407Z,10.24
2019-04-20T23:09:59.740Z,10.17
2019-04-20T23:12:29.222Z,10.10
2019-04-20T23:15:00.503Z,10.01
2019-04-20T23:17:37.211Z,9.95
2019-04-20T23:20:03.521Z,9.93
2019-04-20T23:22:40.369Z,9.82
2019-04-20T23:25:07.135Z,9.74
2019-04-20T23:27:39.089Z,9.73
2019-04-20T23:30:14.834Z,9.72
2019-04-20T23:32:42.169Z,9.66
2019-04-20T23:35:18.132Z,9.62
2019-04-20T23:37:46.294Z,9.62
2019-04-20T23:40:16.864Z,9.52
2019-04-20T23:42:51.821Z,9.41
2019-04-20T23:45:44.727Z,9.39
2019-04-20T23:48:14.281Z,9.38
2019-04-20T23:51:01.150Z,9.31
2019-04-20T23:53:33.880Z,9.24
2019-04-20T23:55:49.907Z,9.19
2019-04-20T23:58:21.165Z,9.15
